createdAt,value
2017-04-24T00:00:00.575Z,98.1
2017-04-24T00:00:13.767Z,98.19
2017-04-24T00:00:26.929Z,98.43
2017-04-24T00:00:40.049Z,98.1
2017-04-24T00:00:53.144Z,98.1
2017-04-24T00:01:06.266Z,98.05
2017-04-24T00:01:18.911Z,98.24
2017-04-24T00:01:32.066Z,98.05
2017-04-24T00:01:45.264Z,98.05
2017-04-24T00:01:58.366Z,98.1
2017-04-24T00:02:11.443Z,98
2017-04-24T00:02:24.071Z,98.33
2017-04-24T00:02:37.182Z,98.72
2017-04-24T00:02:50.324Z,98.62
2017-04-24T00:03:03.454Z,98.33
2017-04-24T00:03:15.590Z,98.33
2017-04-24T00:03:28.754Z,98.14
2017-04-24T00:03:41.842Z,98.33
2017-04-24T00:03:54.921Z,98.38
2017-04-24T00:04:08.070Z,98.24
2017-04-24T00:04:20.730Z,98.19
2017-04-24T00:04:33.825Z,98.24
2017-04-24T00:04:46.989Z,97.95
2017-04-24T00:05:00.142Z,98.14
2017-04-24T00:05:12.269Z,97.95
2017-04-24T00:05:24.938Z,98.14
2017-04-24T00:05:38.102Z,98.19
2017-04-24T00:05:51.228Z,98.24
2017-04-24T00:06:04.399Z,98.33
2017-04-24T00:06:17.515Z,98.33
2017-04-24T00:06:30.120Z,98.14
2017-04-24T00:06:43.284Z,98.62
2017-04-24T00:06:56.477Z,98.05
2017-04-24T00:07:09.129Z,98.24
2017-04-24T00:07:22.224Z,98.24
2017-04-24T00:07:35.323Z,98.24
2017-04-24T00:07:48.446Z,98.24
2017-04-24T00:08:01.057Z,98.62
2017-04-24T00:08:13.691Z,98.33
2017-04-24T00:08:26.812Z,98.72
2017-04-24T00:08:38.955Z,98.72
2017-04-24T00:08:52.076Z,98.14
2017-04-24T00:09:04.709Z,98.24
2017-04-24T00:09:17.871Z,98.33
2017-04-24T00:09:30.980Z,98.33
2017-04-24T00:09:44.159Z,98.14
2017-04-24T00:09:57.473Z,98.14
2017-04-24T00:10:10.116Z,98.24
2017-04-24T00:10:22.762Z,98.33
2017-04-24T00:10:35.913Z,98.62
2017-04-24T00:10:49.067Z,98.43
2017-04-24T00:11:02.202Z,98.33
2017-04-24T00:11:15.376Z,98.14
2017-04-24T00:11:28.586Z,98.24
2017-04-24T00:11:41.697Z,98.43
2017-04-24T00:11:54.823Z,98.33
2017-04-24T00:12:08.018Z,98.14
2017-04-24T00:12:21.172Z,98.05
2017-04-24T00:12:33.808Z,98.24
2017-04-24T00:12:51.394Z,98.05
2017-04-24T00:13:04.514Z,98.33
2017-04-24T00:13:17.651Z,98.62
2017-04-24T00:13:30.767Z,98.62
2017-04-24T00:13:43.462Z,98.24
2017-04-24T00:13:56.605Z,98.33
2017-04-24T00:14:09.771Z,98.33
2017-04-24T00:14:22.874Z,98.53
2017-04-24T00:14:36.031Z,98.14
2017-04-24T00:14:49.124Z,98.24
2017-04-24T00:15:02.264Z,98.24
2017-04-24T00:15:14.421Z,98.62
2017-04-24T00:15:27.085Z,98.62
2017-04-24T00:15:40.195Z,98.43
2017-04-24T00:15:53.322Z,98.62
2017-04-24T00:16:06.522Z,98.72
2017-04-24T00:16:19.126Z,98.24
2017-04-24T00:16:32.231Z,98.14
2017-04-24T00:16:44.898Z,98.62
2017-04-24T00:16:58.048Z,98.62
2017-04-24T00:17:10.678Z,98.43
2017-04-24T00:17:22.790Z,98.28
2017-04-24T00:17:35.409Z,98.33
2017-04-24T00:17:48.039Z,98.82
2017-04-24T00:18:01.155Z,98.33
2017-04-24T00:18:14.293Z,98.53
2017-04-24T00:18:27.617Z,98.53
2017-04-24T00:18:40.709Z,98.62
2017-04-24T00:18:53.415Z,98.82
2017-04-24T00:19:06.635Z,98.82
2017-04-24T00:19:19.268Z,98.91
2017-04-24T00:19:32.405Z,98.72
2017-04-24T00:19:45.037Z,98.72
2017-04-24T00:19:58.183Z,98.53
2017-04-24T00:20:10.298Z,98.72
2017-04-24T00:20:23.432Z,98.72
2017-04-24T00:20:36.593Z,98.72
2017-04-24T00:20:49.723Z,98.33
2017-04-24T00:21:02.888Z,98.72
2017-04-24T00:21:15.573Z,98.53
2017-04-24T00:21:28.699Z,98.67
2017-04-24T00:21:41.892Z,98.28
2017-04-24T00:21:54.971Z,98.82
2017-04-24T00:22:08.043Z,98.96
2017-04-24T00:22:20.755Z,98.48
2017-04-24T00:22:33.918Z,98.96
2017-04-24T00:22:47.093Z,98.57
2017-04-24T00:23:00.228Z,98.72
2017-04-24T00:23:13.400Z,98.72
2017-04-24T00:23:26.553Z,98.53
2017-04-24T00:23:39.718Z,99.01
2017-04-24T00:23:52.871Z,98.72
2017-04-24T00:24:05.957Z,98.72
2017-04-24T00:24:18.545Z,98.53
2017-04-24T00:24:31.726Z,98.33
2017-04-24T00:24:44.858Z,98.33
2017-04-24T00:24:58.010Z,98.53
2017-04-24T00:25:11.120Z,98.33
2017-04-24T00:25:23.758Z,98.72
2017-04-24T00:25:36.816Z,98.67
2017-04-24T00:25:49.480Z,98.86
2017-04-24T00:26:02.613Z,98.62
2017-04-24T00:26:15.194Z,98.82
2017-04-24T00:26:27.856Z,98.67
2017-04-24T00:26:40.465Z,98.43
2017-04-24T00:26:53.596Z,98.72
2017-04-24T00:27:06.229Z,98.72
2017-04-24T00:27:19.338Z,98.96
2017-04-24T00:27:32.484Z,98.91
2017-04-24T00:27:45.581Z,98.67
2017-04-24T00:27:58.921Z,98.91
2017-04-24T00:28:11.525Z,98.77
2017-04-24T00:28:24.656Z,99.01
2017-04-24T00:28:37.795Z,98.67
2017-04-24T00:28:50.904Z,98.96
2017-04-24T00:29:03.937Z,98.67
2017-04-24T00:29:17.058Z,98.86
2017-04-24T00:29:30.173Z,98.67
2017-04-24T00:29:43.324Z,98.62
2017-04-24T00:29:56.430Z,98.77
2017-04-24T00:30:09.566Z,98.43
2017-04-24T00:30:22.205Z,99.24
2017-04-24T00:30:34.832Z,98.24
2017-04-24T00:30:47.990Z,98.96
2017-04-24T00:31:01.159Z,99.05
2017-04-24T00:31:14.294Z,98.67
2017-04-24T00:31:27.448Z,98.28
2017-04-24T00:31:40.585Z,98.77
2017-04-24T00:31:53.708Z,98.67
2017-04-24T00:32:06.781Z,98.77
2017-04-24T00:32:18.875Z,98.77
2017-04-24T00:32:31.505Z,98.53
2017-04-24T00:32:44.650Z,98.67
2017-04-24T00:32:57.827Z,98.77
2017-04-24T00:33:10.659Z,98.67
2017-04-24T00:33:23.280Z,98.38
2017-04-24T00:33:36.386Z,98.77
2017-04-24T00:33:49.549Z,98.48
2017-04-24T00:34:02.623Z,98.19
2017-04-24T00:34:14.732Z,98.67
2017-04-24T00:34:27.926Z,98.82
2017-04-24T00:34:41.070Z,98.48
2017-04-24T00:34:54.261Z,99.2
2017-04-24T00:35:07.377Z,98.96
2017-04-24T00:35:20.523Z,99.01
2017-04-24T00:35:33.694Z,98.86
2017-04-24T00:35:46.843Z,98.96
2017-04-24T00:35:59.979Z,98.91
2017-04-24T00:36:13.084Z,98.67
2017-04-24T00:36:26.199Z,98.77
2017-04-24T00:36:39.343Z,99.1
2017-04-24T00:36:52.691Z,98.77
2017-04-24T00:37:05.392Z,99.15
2017-04-24T00:37:18.612Z,98.96
2017-04-24T00:37:31.776Z,99.1
2017-04-24T00:37:44.923Z,98.96
2017-04-24T00:37:57.600Z,99.01
2017-04-24T00:38:10.767Z,99.01
2017-04-24T00:38:23.407Z,98.96
2017-04-24T00:38:36.026Z,98.96
2017-04-24T00:38:49.197Z,99.15
2017-04-24T00:39:02.361Z,98.72
2017-04-24T00:39:15.018Z,98.77
2017-04-24T00:39:28.130Z,98.72
2017-04-24T00:39:41.223Z,98.67
2017-04-24T00:39:53.856Z,98.77
2017-04-24T00:40:05.964Z,98.72
2017-04-24T00:40:18.645Z,98.96
2017-04-24T00:40:31.824Z,99.05
2017-04-24T00:40:44.947Z,98.86
2017-04-24T00:40:58.000Z,98.96
2017-04-24T00:41:11.192Z,98.77
2017-04-24T00:41:24.412Z,98.96
2017-04-24T00:41:37.575Z,98.96
2017-04-24T00:41:50.647Z,98.86
2017-04-24T00:42:03.870Z,98.77
2017-04-24T00:42:16.552Z,99.05
2017-04-24T00:42:29.713Z,99.24
2017-04-24T00:42:42.955Z,99.24
2017-04-24T00:42:56.365Z,99.34
2017-04-24T00:43:09.484Z,99.15
2017-04-24T00:43:22.143Z,99.34
2017-04-24T00:43:35.403Z,99.44
2017-04-24T00:43:48.133Z,99.24
2017-04-24T00:44:01.294Z,99.34
2017-04-24T00:44:13.945Z,99.15
2017-04-24T00:44:27.178Z,99.24
2017-04-24T00:44:39.806Z,99.44
2017-04-24T00:44:52.930Z,99.24
2017-04-24T00:45:06.118Z,99.24
2017-04-24T00:45:19.276Z,99.34
2017-04-24T00:45:32.514Z,99.24
2017-04-24T00:45:45.627Z,99.05
2017-04-24T00:45:58.826Z,99.24
2017-04-24T00:46:12.002Z,99.24
2017-04-24T00:46:25.145Z,99.15
2017-04-24T00:46:37.240Z,99.05
2017-04-24T00:46:50.357Z,99.15
2017-04-24T00:47:03.473Z,99.05
2017-04-24T00:47:16.656Z,99.24
2017-04-24T00:47:29.343Z,99.15
2017-04-24T00:47:42.475Z,99.24
2017-04-24T00:47:55.588Z,99.05
2017-04-24T00:48:08.779Z,99.15
2017-04-24T00:48:21.962Z,98.96
2017-04-24T00:48:35.399Z,99.05
2017-04-24T00:48:48.644Z,98.86
2017-04-24T00:49:02.079Z,99.24
2017-04-24T00:49:15.247Z,99.24
2017-04-24T00:49:31.934Z,99.34
2017-04-24T00:49:44.578Z,99.44
2017-04-24T00:49:57.755Z,99.44
2017-04-24T00:50:10.914Z,99.44
2017-04-24T00:50:24.063Z,99.44
2017-04-24T00:50:37.243Z,99.44
2017-04-24T00:50:50.382Z,99.24
2017-04-24T00:51:03.508Z,99.24
2017-04-24T00:51:16.176Z,99.34
2017-04-24T00:51:29.319Z,98.86
2017-04-24T00:51:42.473Z,99.05
2017-04-24T00:51:55.583Z,99.05
2017-04-24T00:52:08.841Z,99.44
2017-04-24T00:52:21.893Z,99.34
2017-04-24T00:52:35.047Z,99.34
2017-04-24T00:52:48.221Z,99.24
2017-04-24T00:53:01.363Z,99.15
2017-04-24T00:53:13.983Z,99.24
2017-04-24T00:53:27.134Z,99.44
2017-04-24T00:53:40.298Z,99.24
2017-04-24T00:53:53.455Z,99.15
2017-04-24T00:54:06.676Z,99.15
2017-04-24T00:54:18.840Z,99.24
2017-04-24T00:54:31.940Z,99.44
2017-04-24T00:54:45.125Z,99.34
2017-04-24T00:54:58.299Z,99.24
2017-04-24T00:55:10.972Z,99.34
2017-04-24T00:55:23.654Z,99.34
2017-04-24T00:55:36.810Z,99.24
2017-04-24T00:55:49.960Z,99.15
2017-04-24T00:56:02.651Z,99.24
2017-04-24T00:56:15.817Z,99.24
2017-04-24T00:56:29.922Z,99.24
2017-04-24T00:56:43.123Z,99.34
2017-04-24T00:56:56.311Z,99.24
2017-04-24T00:57:09.477Z,99.24
2017-04-24T00:57:22.131Z,99.24
2017-04-24T00:57:34.730Z,99.24
2017-04-24T00:57:47.928Z,99.15
2017-04-24T00:58:01.043Z,99.34
2017-04-24T00:58:16.604Z,99.24
2017-04-24T00:58:29.710Z,99.44
2017-04-24T00:58:43.014Z,99.44
2017-04-24T00:58:56.270Z,99.44
2017-04-24T00:59:09.424Z,99.24
2017-04-24T00:59:22.116Z,99.24
2017-04-24T00:59:35.293Z,99.24
2017-04-24T00:59:48.508Z,99.24
2017-04-24T01:00:01.646Z,99.15
2017-04-24T01:00:14.296Z,99.34
2017-04-24T01:00:27.490Z,99.44
2017-04-24T01:00:40.653Z,99.34
2017-04-24T01:00:53.754Z,99.44
2017-04-24T01:01:06.881Z,99.44
2017-04-24T01:01:19.449Z,99.24
2017-04-24T01:01:32.553Z,99.44
2017-04-24T01:01:45.192Z,99.24
2017-04-24T01:01:58.412Z,99.24
2017-04-24T01:02:11.552Z,99.34
2017-04-24T01:02:24.659Z,99.05
2017-04-24T01:02:37.918Z,98.96
2017-04-24T01:02:50.546Z,99.24
2017-04-24T01:03:03.643Z,99.44
2017-04-24T01:03:16.900Z,98.96
2017-04-24T01:03:30.043Z,99.34
2017-04-24T01:03:43.100Z,99.44
2017-04-24T01:03:56.184Z,98.86
2017-04-24T01:04:09.389Z,98.86
2017-04-24T01:04:22.501Z,98.77
2017-04-24T01:04:38.482Z,98.96
2017-04-24T01:04:51.674Z,98.96
2017-04-24T01:05:04.838Z,98.96
2017-04-24T01:05:17.774Z,99.05
2017-04-24T01:05:30.997Z,99.24
2017-04-24T01:05:44.222Z,98.96
2017-04-24T01:05:57.331Z,99.05
2017-04-24T01:06:11.798Z,99.05
2017-04-24T01:06:36.249Z,99.34
2017-04-24T01:06:49.423Z,99.53
2017-04-24T01:07:02.872Z,99.44
2017-04-24T01:07:16.057Z,99.24
2017-04-24T01:07:29.160Z,99.44
2017-04-24T01:07:44.587Z,99.44
2017-04-24T01:08:10.550Z,99.24
2017-04-24T01:08:23.208Z,99.44
2017-04-24T01:08:36.355Z,99.34
2017-04-24T01:08:49.547Z,99.44
2017-04-24T01:09:02.711Z,99.34
2017-04-24T01:09:16.714Z,99.34
2017-04-24T01:09:29.989Z,98.96
2017-04-24T01:09:44.614Z,99.05
2017-04-24T01:09:59.017Z,99.05
2017-04-24T01:10:11.243Z,99.15
2017-04-24T01:10:27.549Z,99.05
2017-04-24T01:10:40.896Z,99.05
2017-04-24T01:10:55.012Z,99.05
2017-04-24T01:11:08.232Z,99.15
2017-04-24T01:11:21.394Z,99.15
2017-04-24T01:11:34.035Z,99.15
2017-04-24T01:11:47.462Z,99.19
2017-04-24T01:12:00.139Z,98.96
2017-04-24T01:12:13.315Z,99.44
2017-04-24T01:12:26.165Z,99.44
2017-04-24T01:12:39.301Z,98.86
2017-04-24T01:12:52.434Z,99.44
2017-04-24T01:13:05.316Z,99.39
2017-04-24T01:13:18.681Z,99.48
2017-04-24T01:13:31.834Z,99.19
2017-04-24T01:13:44.978Z,99.99
2017-04-24T01:13:57.559Z,99.91
2017-04-24T01:14:10.706Z,99.87
2017-04-24T01:14:23.843Z,99.87
2017-04-24T01:14:36.405Z,99.87
2017-04-24T01:14:49.506Z,99.87
2017-04-24T01:15:02.700Z,99.77
2017-04-24T01:15:14.871Z,99.68
2017-04-24T01:15:28.124Z,99.39
2017-04-24T01:15:41.347Z,99.77
2017-04-24T01:15:54.660Z,99.77
2017-04-24T01:16:07.872Z,99.77
2017-04-24T01:16:21.018Z,99.58
2017-04-24T01:16:34.067Z,99.48
2017-04-24T01:16:46.718Z,99.58
2017-04-24T01:16:59.886Z,99.77
2017-04-24T01:17:12.496Z,99.77
2017-04-24T01:17:25.651Z,99.68
2017-04-24T01:17:38.278Z,99.58
2017-04-24T01:17:51.407Z,99.96
2017-04-24T01:18:04.592Z,99.58
2017-04-24T01:18:16.695Z,99.58
2017-04-24T01:18:29.790Z,99.77
2017-04-24T01:18:42.957Z,99.87
2017-04-24T01:18:56.086Z,99.87
2017-04-24T01:19:09.175Z,99.87
2017-04-24T01:19:22.309Z,99.77
2017-04-24T01:19:34.989Z,99.77
2017-04-24T01:19:48.119Z,99.77
2017-04-24T01:20:01.210Z,99.77
2017-04-24T01:20:14.396Z,99.68
2017-04-24T01:20:27.545Z,99.87
2017-04-24T01:20:40.679Z,99.58
2017-04-24T01:20:53.873Z,99.77
2017-04-24T01:21:06.954Z,99.68
2017-04-24T01:21:20.047Z,99.87
2017-04-24T01:21:32.726Z,99.96
2017-04-24T01:21:45.879Z,99.77
2017-04-24T01:21:59.006Z,99.96
2017-04-24T01:22:11.595Z,99.77
2017-04-24T01:22:24.693Z,99.87
2017-04-24T01:22:37.812Z,99.58
2017-04-24T01:22:50.954Z,99.58
2017-04-24T01:23:04.082Z,99.19
2017-04-24T01:23:17.235Z,99.19
2017-04-24T01:23:30.406Z,99.19
2017-04-24T01:23:43.525Z,99.01
2017-04-24T01:23:56.630Z,99.1
2017-04-24T01:24:09.806Z,99.48
2017-04-24T01:24:22.456Z,99.96
2017-04-24T01:24:35.604Z,99.96
2017-04-24T01:24:48.748Z,99.77
2017-04-24T01:25:01.378Z,99.87
2017-04-24T01:25:14.562Z,99.19
2017-04-24T01:25:27.782Z,99.48
2017-04-24T01:25:40.976Z,99.77
2017-04-24T01:25:54.076Z,99.48
2017-04-24T01:26:07.241Z,99.29
2017-04-24T01:26:19.927Z,99.39
2017-04-24T01:26:33.078Z,99.19
2017-04-24T01:26:46.175Z,99.39
2017-04-24T01:26:59.381Z,99.01
2017-04-24T01:27:12.607Z,99.01
2017-04-24T01:27:25.774Z,99.01
2017-04-24T01:27:38.426Z,99.01
2017-04-24T01:27:53.668Z,99.29
2017-04-24T01:28:06.282Z,99.1
2017-04-24T01:28:19.409Z,98.91
2017-04-24T01:28:32.313Z,99.01
2017-04-24T01:28:45.737Z,99.39
2017-04-24T01:28:59.051Z,99.01
2017-04-24T01:29:12.210Z,99.39
2017-04-24T01:29:26.093Z,99.29
2017-04-24T01:29:40.024Z,99.39
2017-04-24T01:29:53.438Z,99.19
2017-04-24T01:30:05.706Z,99.19
2017-04-24T01:30:18.885Z,99.24
2017-04-24T01:30:32.753Z,99.24
2017-04-24T01:30:45.368Z,99.39
2017-04-24T01:30:58.587Z,98.81
2017-04-24T01:31:12.475Z,99.19
2017-04-24T01:31:27.606Z,99.15
2017-04-24T01:31:42.044Z,99.15
2017-04-24T01:31:55.898Z,99.05
2017-04-24T01:32:09.279Z,99.39
2017-04-24T01:32:23.046Z,98.91
2017-04-24T01:32:37.627Z,98.86
2017-04-24T01:32:50.798Z,98.57
2017-04-24T01:33:03.871Z,98.72
2017-04-24T01:33:16.589Z,98.81
2017-04-24T01:33:30.506Z,98.81
2017-04-24T01:33:43.411Z,98.91
2017-04-24T01:33:57.299Z,98.91
2017-04-24T01:34:10.693Z,99.01
2017-04-24T01:34:24.578Z,99.05
2017-04-24T01:34:37.477Z,98.72
2017-04-24T01:34:51.298Z,98.72
2017-04-24T01:35:04.514Z,98.91
2017-04-24T01:35:16.172Z,99.1
2017-04-24T01:35:29.993Z,99.29
2017-04-24T01:35:42.613Z,98.57
2017-04-24T01:35:56.990Z,98.72
2017-04-24T01:36:10.190Z,98.62
2017-04-24T01:36:23.403Z,99.29
2017-04-24T01:36:36.578Z,98.72
2017-04-24T01:36:49.211Z,98.67
2017-04-24T01:37:02.412Z,98.43
2017-04-24T01:37:18.168Z,98.81
2017-04-24T01:37:31.404Z,98.43
2017-04-24T01:37:43.622Z,98.72
2017-04-24T01:37:56.865Z,98.76
2017-04-24T01:38:10.044Z,98.72
2017-04-24T01:38:22.722Z,98.62
2017-04-24T01:38:36.638Z,98.62
2017-04-24T01:38:51.846Z,98.62
2017-04-24T01:39:04.999Z,98.81
2017-04-24T01:39:17.763Z,98.38
2017-04-24T01:39:31.691Z,98.52
2017-04-24T01:39:44.938Z,98.43
2017-04-24T01:39:58.193Z,98.76
2017-04-24T01:40:10.887Z,98.57
2017-04-24T01:40:24.024Z,98.72
2017-04-24T01:40:36.736Z,98.47
2017-04-24T01:40:49.955Z,98.91
2017-04-24T01:41:03.334Z,98.91
2017-04-24T01:41:21.559Z,98.47
2017-04-24T01:41:34.660Z,98.62
2017-04-24T01:42:13.611Z,98.62
2017-04-24T01:42:26.812Z,98.62
2017-04-24T01:42:39.431Z,98.81
2017-04-24T01:42:52.128Z,98.52
2017-04-24T01:43:05.272Z,98.81
2017-04-24T01:43:17.402Z,98.62
2017-04-24T01:43:32.413Z,98.72
2017-04-24T01:44:00.416Z,98.28
2017-04-24T01:44:13.538Z,98.33
2017-04-24T01:44:26.722Z,98.43
2017-04-24T01:44:39.877Z,98.33
2017-04-24T01:44:52.522Z,98.24
2017-04-24T01:45:05.737Z,98.81
2017-04-24T01:45:18.395Z,98.62
2017-04-24T01:45:31.439Z,98.52
2017-04-24T01:45:44.599Z,98.72
2017-04-24T01:45:58.511Z,98.57
2017-04-24T01:46:11.652Z,98.43
2017-04-24T01:46:24.318Z,98.81
2017-04-24T01:46:37.448Z,98.76
2017-04-24T01:46:50.849Z,98.57
2017-04-24T01:47:04.097Z,98.72
2017-04-24T01:47:17.226Z,98.52
2017-04-24T01:47:30.354Z,99.48
2017-04-24T01:47:43.546Z,98.38
2017-04-24T01:47:56.722Z,98.47
2017-04-24T01:48:09.396Z,99.29
2017-04-24T01:48:22.583Z,98.72
2017-04-24T01:48:35.789Z,98.52
2017-04-24T01:48:49.002Z,98.57
2017-04-24T01:49:02.122Z,98.43
2017-04-24T01:49:14.763Z,99.29
2017-04-24T01:49:27.493Z,98.47
2017-04-24T01:49:40.869Z,98.62
2017-04-24T01:49:54.051Z,98.72
2017-04-24T01:50:06.748Z,98.86
2017-04-24T01:50:19.535Z,98.76
2017-04-24T01:50:32.722Z,98.86
2017-04-24T01:50:45.957Z,98.47
2017-04-24T01:50:59.150Z,98.67
2017-04-24T01:51:12.296Z,99.05
2017-04-24T01:51:24.960Z,98.76
2017-04-24T01:51:38.145Z,98.81
2017-04-24T01:51:51.303Z,98.76
2017-04-24T01:52:03.916Z,98.76
2017-04-24T01:52:17.023Z,98.67
2017-04-24T01:52:30.222Z,98.47
2017-04-24T01:52:44.045Z,98.47
2017-04-24T01:52:57.241Z,98.67
2017-04-24T01:53:10.784Z,98.62
2017-04-24T01:53:24.015Z,99.05
2017-04-24T01:53:37.134Z,99.24
2017-04-24T01:53:49.764Z,99.05
2017-04-24T01:54:02.975Z,99.15
2017-04-24T01:54:15.626Z,98.86
2017-04-24T01:54:28.266Z,99.15
2017-04-24T01:54:41.363Z,99.15
2017-04-24T01:54:55.265Z,98.96
2017-04-24T01:55:08.394Z,98.67
2017-04-24T01:55:21.032Z,98.96
2017-04-24T01:55:34.218Z,99.15
2017-04-24T01:55:47.393Z,98.86
2017-04-24T01:56:00.753Z,99.24
2017-04-24T01:56:13.841Z,98.67
2017-04-24T01:56:26.452Z,99.15
2017-04-24T01:56:39.602Z,98.86
2017-04-24T01:56:52.144Z,99.05
2017-04-24T01:57:05.283Z,99.34
2017-04-24T01:57:18.427Z,99.34
2017-04-24T01:57:31.639Z,99.24
2017-04-24T01:57:44.246Z,99.24
2017-04-24T01:57:57.395Z,99.24
2017-04-24T01:58:10.558Z,99.24
2017-04-24T01:58:23.901Z,99.34
2017-04-24T01:58:36.570Z,99.24
2017-04-24T01:58:49.393Z,99.24
2017-04-24T01:59:02.529Z,99.24
2017-04-24T01:59:15.642Z,99.43
2017-04-24T01:59:29.430Z,99.34
2017-04-24T01:59:43.291Z,99.34
2017-04-24T01:59:56.426Z,99.15
2017-04-24T02:00:09.020Z,99.24
2017-04-24T02:00:22.185Z,99.34
2017-04-24T02:00:35.313Z,99.15
2017-04-24T02:00:48.522Z,99.43
2017-04-24T02:01:01.679Z,99.24
2017-04-24T02:01:14.301Z,99.53
2017-04-24T02:01:26.900Z,99.43
2017-04-24T02:01:40.015Z,99.15
2017-04-24T02:01:53.172Z,99.05
2017-04-24T02:02:06.329Z,99.05
2017-04-24T02:02:18.975Z,99.05
2017-04-24T02:02:32.151Z,99.05
2017-04-24T02:02:45.340Z,99.05
2017-04-24T02:02:57.993Z,99.43
2017-04-24T02:03:10.578Z,98.96
2017-04-24T02:03:23.198Z,99.24
2017-04-24T02:03:36.330Z,99.24
2017-04-24T02:03:49.475Z,99.05
2017-04-24T02:04:02.602Z,99.15
2017-04-24T02:04:15.004Z,99.05
2017-04-24T02:04:28.163Z,99.15
2017-04-24T02:04:41.320Z,98.96
2017-04-24T02:04:54.467Z,99.15
2017-04-24T02:05:07.374Z,99.05
2017-04-24T02:05:20.781Z,99.34
2017-04-24T02:05:33.387Z,99.34
2017-04-24T02:05:46.506Z,99.24
2017-04-24T02:05:59.127Z,99.34
2017-04-24T02:06:11.252Z,99.43
2017-04-24T02:06:24.486Z,99.34
2017-04-24T02:06:37.601Z,99.15
2017-04-24T02:06:50.214Z,99.43
2017-04-24T02:07:03.345Z,99.15
2017-04-24T02:07:16.006Z,99.99
2017-04-24T02:07:29.173Z,99.34
2017-04-24T02:07:42.319Z,99.99
2017-04-24T02:07:55.542Z,99.99
2017-04-24T02:08:08.226Z,99.99
2017-04-24T02:08:21.339Z,99.99
2017-04-24T02:08:34.445Z,99.82
2017-04-24T02:08:47.607Z,99.99
2017-04-24T02:09:00.737Z,99.91
2017-04-24T02:09:14.118Z,99.99
2017-04-24T02:09:27.304Z,99.72
2017-04-24T02:09:40.578Z,99.91
2017-04-24T02:09:53.683Z,99.91
2017-04-24T02:10:06.820Z,99.63
2017-04-24T02:10:19.487Z,99.72
2017-04-24T02:10:32.631Z,99.82
2017-04-24T02:10:45.806Z,99.82
2017-04-24T02:10:58.975Z,99.53
2017-04-24T02:11:11.732Z,99.53
2017-04-24T02:11:24.931Z,99.53
2017-04-24T02:11:38.051Z,99.63
2017-04-24T02:11:51.133Z,99.82
2017-04-24T02:12:04.281Z,99.82
2017-04-24T02:12:17.438Z,99.82
2017-04-24T02:12:30.612Z,99.43
2017-04-24T02:12:43.890Z,99.99
2017-04-24T02:12:57.004Z,99.82
2017-04-24T02:13:09.646Z,99.82
2017-04-24T02:13:21.749Z,99.99
2017-04-24T02:13:34.953Z,99.99
2017-04-24T02:13:49.705Z,99.99
2017-04-24T02:14:02.841Z,99.99
2017-04-24T02:14:16.032Z,99.99
2017-04-24T02:14:29.115Z,99.91
2017-04-24T02:14:46.529Z,99.99
2017-04-24T02:14:59.766Z,99.99
2017-04-24T02:15:15.226Z,99.99
2017-04-24T02:15:28.387Z,99.99
2017-04-24T02:15:41.529Z,99.99
2017-04-24T02:15:54.669Z,99.99
2017-04-24T02:16:17.592Z,99.99
2017-04-24T02:16:32.172Z,99.99
2017-04-24T02:16:46.536Z,99.99
2017-04-24T02:16:59.781Z,99.99
2017-04-24T02:17:12.203Z,99.99
2017-04-24T02:17:27.054Z,99.99
2017-04-24T02:17:47.224Z,99.99
2017-04-24T02:18:00.649Z,99.99
2017-04-24T02:18:16.780Z,99.99
2017-04-24T02:18:29.904Z,99.99
2017-04-24T02:18:42.531Z,99.99
2017-04-24T02:18:57.214Z,99.82
2017-04-24T02:19:10.642Z,99.99
2017-04-24T02:19:25.077Z,99.99
2017-04-24T02:19:38.209Z,99.91
2017-04-24T02:19:51.341Z,99.82
2017-04-24T02:20:03.503Z,99.72
2017-04-24T02:20:16.144Z,99.99
2017-04-24T02:20:29.343Z,99.99
2017-04-24T02:20:43.368Z,99.99
2017-04-24T02:20:57.103Z,99.99
2017-04-24T02:21:10.357Z,99.99
2017-04-24T02:21:23.459Z,99.99
2017-04-24T02:21:36.601Z,99.99
2017-04-24T02:21:49.738Z,99.99
2017-04-24T02:22:02.865Z,99.99
2017-04-24T02:22:15.002Z,99.99
2017-04-24T02:22:33.250Z,99.99
2017-04-24T02:22:47.692Z,99.91
2017-04-24T02:23:00.785Z,99.82
2017-04-24T02:23:13.842Z,99.91
2017-04-24T02:23:27.028Z,99.99
2017-04-24T02:23:40.274Z,99.99
2017-04-24T02:23:53.684Z,99.99
2017-04-24T02:24:06.843Z,99.99
2017-04-24T02:24:19.997Z,99.99
2017-04-24T02:24:33.177Z,99.91
2017-04-24T02:24:46.321Z,99.91
2017-04-24T02:24:58.907Z,99.99
2017-04-24T02:25:12.771Z,99.99
2017-04-24T02:25:25.459Z,99.99
2017-04-24T02:25:38.690Z,99.99
2017-04-24T02:25:51.357Z,99.99
2017-04-24T02:26:04.515Z,99.99
2017-04-24T02:26:17.241Z,99.99
2017-04-24T02:26:30.718Z,99.99
2017-04-24T02:26:44.637Z,99.99
2017-04-24T02:26:57.850Z,99.99
2017-04-24T02:27:10.452Z,99.99
2017-04-24T02:27:23.604Z,99.99
2017-04-24T02:27:36.769Z,99.99
2017-04-24T02:27:49.711Z,99.99
2017-04-24T02:28:02.798Z,99.99
2017-04-24T02:28:15.477Z,99.99
2017-04-24T02:28:28.675Z,99.99
2017-04-24T02:28:41.859Z,99.99
2017-04-24T02:28:55.270Z,99.99
2017-04-24T02:29:08.383Z,99.99
2017-04-24T02:29:21.009Z,99.99
2017-04-24T02:29:34.128Z,99.99
2017-04-24T02:29:46.765Z,99.99
2017-04-24T02:29:59.389Z,99.99
2017-04-24T02:30:12.571Z,99.99
2017-04-24T02:30:25.705Z,99.99
2017-04-24T02:30:38.886Z,99.99
2017-04-24T02:30:52.084Z,99.99
2017-04-24T02:31:05.192Z,99.99
2017-04-24T02:31:17.815Z,99.99
2017-04-24T02:31:30.914Z,99.99
2017-04-24T02:31:44.068Z,99.99
2017-04-24T02:31:57.201Z,99.99
2017-04-24T02:32:09.359Z,99.99
2017-04-24T02:32:22.045Z,99.99
2017-04-24T02:32:35.146Z,99.99
2017-04-24T02:32:47.759Z,99.99
2017-04-24T02:33:00.407Z,99.99
2017-04-24T02:33:13.555Z,99.99
2017-04-24T02:33:26.767Z,99.99
2017-04-24T02:33:39.000Z,99.99
2017-04-24T02:33:52.156Z,99.99
2017-04-24T02:34:05.252Z,99.99
2017-04-24T02:34:18.473Z,99.99
2017-04-24T02:34:31.862Z,99.99
2017-04-24T02:34:45.012Z,99.99
2017-04-24T02:34:57.662Z,99.99
2017-04-24T02:35:10.521Z,99.99
2017-04-24T02:35:23.690Z,99.99
2017-04-24T02:35:36.889Z,99.99
2017-04-24T02:35:50.065Z,99.99
2017-04-24T02:36:03.213Z,99.99
2017-04-24T02:36:16.342Z,99.99
2017-04-24T02:36:29.434Z,99.99
2017-04-24T02:36:42.522Z,99.99
2017-04-24T02:36:55.668Z,99.99
2017-04-24T02:37:08.308Z,99.99
2017-04-24T02:37:21.461Z,99.99
2017-04-24T02:37:34.616Z,99.99
2017-04-24T02:37:47.772Z,99.99
2017-04-24T02:38:00.877Z,99.99
2017-04-24T02:38:14.029Z,99.99
2017-04-24T02:38:27.210Z,99.99
2017-04-24T02:38:40.380Z,99.99
2017-04-24T02:38:53.034Z,99.99
2017-04-24T02:39:06.179Z,99.99
2017-04-24T02:39:18.884Z,99.99
2017-04-24T02:39:32.113Z,99.99
2017-04-24T02:39:45.278Z,99.99
2017-04-24T02:39:58.444Z,99.99
2017-04-24T02:40:11.623Z,99.99
2017-04-24T02:40:24.850Z,99.99
2017-04-24T02:40:38.018Z,99.99
2017-04-24T02:40:51.194Z,99.99
2017-04-24T02:41:04.462Z,99.99
2017-04-24T02:41:17.593Z,99.99
2017-04-24T02:41:30.849Z,99.99
2017-04-24T02:41:44.029Z,99.99
2017-04-24T02:41:57.209Z,99.99
2017-04-24T02:42:09.857Z,99.99
2017-04-24T02:42:23.050Z,99.99
2017-04-24T02:42:36.217Z,99.99
2017-04-24T02:42:49.363Z,99.99
2017-04-24T02:43:02.511Z,99.99
2017-04-24T02:43:15.651Z,99.99
2017-04-24T02:43:28.829Z,99.99
2017-04-24T02:43:41.769Z,99.99
2017-04-24T02:43:54.929Z,99.99
2017-04-24T02:44:08.434Z,99.99
2017-04-24T02:44:21.609Z,99.99
2017-04-24T02:44:34.749Z,99.99
2017-04-24T02:44:47.368Z,99.99
2017-04-24T02:45:00.488Z,99.99
2017-04-24T02:45:13.576Z,99.99
2017-04-24T02:45:26.727Z,99.99
2017-04-24T02:45:39.859Z,99.99
2017-04-24T02:45:53.026Z,99.99
2017-04-24T02:46:05.693Z,99.99
2017-04-24T02:46:18.323Z,99.99
2017-04-24T02:46:31.425Z,99.99
2017-04-24T02:46:44.033Z,99.99
2017-04-24T02:46:57.160Z,99.99
2017-04-24T02:47:10.283Z,99.99
2017-04-24T02:47:23.470Z,99.99
2017-04-24T02:47:36.639Z,99.99
2017-04-24T02:47:49.787Z,99.99
2017-04-24T02:48:02.445Z,99.99
2017-04-24T02:48:15.125Z,99.99
2017-04-24T02:48:28.301Z,99.99
2017-04-24T02:48:41.459Z,99.99
2017-04-24T02:48:54.637Z,99.99
2017-04-24T02:49:07.778Z,99.99
2017-04-24T02:49:20.834Z,99.99
2017-04-24T02:49:33.954Z,99.99
2017-04-24T02:49:47.073Z,99.99
2017-04-24T02:50:00.199Z,99.99
2017-04-24T02:50:12.841Z,99.99
2017-04-24T02:50:26.005Z,99.99
2017-04-24T02:50:38.630Z,99.99